Buitenpost, Netherlands
Current Conditions -  °F | °C
As of 7:25 PM on Thursday 30 Oct 2014 (Local Time) from EHLW Reporting Station
Haze Haze  
Wind Chill: 55°   Ceiling: 400
Heat Index: 55°   Visibility: 1.7mi
Dew Point: 55°   Wind: 9mph
Humidity: 100%   Direction: 170°S
Pressure: 30.15"   Gusts: NA
Location:  53.25°N, 6.14°E
Report Text: EHLW 301825Z AUTO 17008KT 2800 R23/P3000 BR OVC004 13/13 Q1021 YLO
Loading
Personal Weather Stations






























Interactive Weather Map
Tropical Storm Tracking
New forecast layout! Learn more

10-Day Weather Forecast

Advertisements
Track Severe Weather on mobile